Time;durP1;ratioP1;P1;durP2;ratioP2;P2;SDS_P1;SDS_P2;PMS_P1;PMS_P2;Temp;Humidity;BMP_temperature;BMP_pressure;BME280_temperature;BME280_humidity;BME280_pressure;Samples;Min_cycle;Max_cycle;Signal;HPM_P1;HPM_P2
2023/06/06 00:00:21;;;;;;;7.57;4.88;;;16.30;99.90;;;;;;5022996;28;20022;-71
2023/06/06 00:02:46;;;;;;;8.07;6.00;;;16.30;99.90;;;;;;5023557;28;20030;-72
2023/06/06 00:05:13;;;;;;;7.40;5.50;;;16.40;99.90;;;;;;5028289;28;20434;-71
2023/06/06 00:07:44;;;;;;;7.20;5.20;;;16.30;99.90;;;;;;5023277;28;20025;-72
2023/06/06 00:10:13;;;;;;;8.00;5.43;;;16.30;99.90;;;;;;5018899;28;20080;-72
2023/06/06 00:12:46;;;;;;;8.52;5.22;;;16.30;99.90;;;;;;5023255;28;20026;-72
2023/06/06 00:15:15;;;;;;;7.95;5.53;;;16.30;99.90;;;;;;5023141;28;20105;-72
2023/06/06 00:17:42;;;;;;;7.75;4.97;;;16.30;99.90;;;;;;5023080;28;20433;-72
2023/06/06 00:20:09;;;;;;;6.63;5.28;;;16.20;99.90;;;;;;5023172;28;20057;-71
2023/06/06 00:22:39;;;;;;;8.07;5.88;;;16.20;99.90;;;;;;5023184;28;20034;-72
2023/06/06 00:25:05;;;;;;;8.13;5.65;;;16.20;99.90;;;;;;5022886;28;20068;-71
2023/06/06 00:27:32;;;;;;;8.88;5.20;;;16.20;99.90;;;;;;5023019;28;20026;-72
2023/06/06 00:29:58;;;;;;;7.10;5.00;;;16.20;99.90;;;;;;5023057;28;20026;-72
2023/06/06 00:32:24;;;;;;;10.60;5.90;;;16.20;99.90;;;;;;5023017;28;20029;-72
2023/06/06 00:34:49;;;;;;;6.78;4.78;;;16.20;99.90;;;;;;5023251;28;20092;-72
2023/06/06 00:37:15;;;;;;;10.23;5.45;;;16.20;99.90;;;;;;5023120;28;20474;-72
2023/06/06 00:39:42;;;;;;;8.55;6.18;;;16.10;99.90;;;;;;5023008;28;20026;-72
2023/06/06 00:42:08;;;;;;;10.13;5.70;;;16.10;99.90;;;;;;5022569;28;20033;-72
2023/06/06 00:44:33;;;;;;;10.50;5.57;;;16.10;99.90;;;;;;5005320;28;20032;-72
2023/06/06 00:46:59;;;;;;;10.68;5.57;;;16.10;99.90;;;;;;5019625;28;20030;-72
2023/06/06 00:49:26;;;;;;;13.40;5.32;;;16.10;99.90;;;;;;5019731;28;20438;-72
2023/06/06 00:51:52;;;;;;;6.72;5.10;;;16.10;99.90;;;;;;5019740;28;20014;-72
2023/06/06 00:54:18;;;;;;;6.38;5.15;;;16.10;99.90;;;;;;5019914;28;20064;-72
2023/06/06 00:56:45;;;;;;;7.22;5.18;;;16.10;99.90;;;;;;5013548;28;20044;-72
2023/06/06 00:59:11;;;;;;;9.05;5.60;;;16.10;99.90;;;;;;4999982;28;20038;-72
2023/06/06 01:01:39;;;;;;;11.70;5.25;;;16.10;99.90;;;;;;5000021;28;20011;-72
2023/06/06 01:04:08;;;;;;;8.07;6.18;;;16.00;99.90;;;;;;4963176;28;20192;-72
2023/06/06 01:06:35;;;;;;;9.38;5.93;;;16.00;99.90;;;;;;4998043;28;20479;-72
2023/06/06 01:09:06;;;;;;;8.55;5.53;;;15.90;99.90;;;;;;5000076;28;20022;-72
2023/06/06 01:12:10;;;;;;;8.50;6.05;;;15.90;99.90;;;;;;4999476;28;20032;-72
2023/06/06 01:14:39;;;;;;;8.02;5.05;;;15.80;99.90;;;;;;4997520;28;20149;-72
2023/06/06 01:17:08;;;;;;;6.93;5.38;;;15.80;99.90;;;;;;4999760;28;20030;-72
2023/06/06 01:19:37;;;;;;;8.15;5.85;;;15.90;99.90;;;;;;4999674;28;20026;-72
2023/06/06 01:22:04;;;;;;;6.60;5.53;;;15.80;99.90;;;;;;4982420;28;20069;-72
2023/06/06 01:24:30;;;;;;;11.98;6.40;;;15.80;99.90;;;;;;4999549;28;20529;-72
2023/06/06 01:26:56;;;;;;;16.67;6.40;;;15.80;99.90;;;;;;4999266;28;20031;-72
2023/06/06 01:29:22;;;;;;;9.63;5.60;;;15.80;99.90;;;;;;4999193;28;20038;-72
2023/06/06 01:32:07;;;;;;;8.38;6.07;;;15.80;99.90;;;;;;4998207;28;20030;-72
2023/06/06 01:34:39;;;;;;;8.10;6.20;;;15.70;99.90;;;;;;4995000;28;20022;-72
2023/06/06 01:37:23;;;;;;;7.50;5.70;;;15.70;99.90;;;;;;4999522;28;20360;-72
2023/06/06 01:39:53;;;;;;;13.35;5.95;;;15.70;99.90;;;;;;4999343;28;20030;-72
2023/06/06 01:42:20;;;;;;;11.05;6.40;;;15.70;99.90;;;;;;4998891;28;20080;-72
2023/06/06 01:44:50;;;;;;;9.43;6.40;;;15.70;99.90;;;;;;4999217;28;20030;-72
2023/06/06 01:47:17;;;;;;;10.70;7.70;;;15.70;99.90;;;;;;4978772;28;20030;-72
2023/06/06 01:49:44;;;;;;;8.48;6.00;;;15.60;99.90;;;;;;4992174;28;20027;-73
2023/06/06 01:52:11;;;;;;;10.20;5.93;;;15.60;99.90;;;;;;4998872;28;20046;-72
2023/06/06 01:54:40;;;;;;;12.43;5.90;;;15.60;99.90;;;;;;4998901;28;20026;-72
2023/06/06 01:57:07;;;;;;;9.65;6.35;;;15.60;99.90;;;;;;4998418;28;20065;-71
2023/06/06 01:59:33;;;;;;;11.07;6.45;;;15.60;99.90;;;;;;4999070;28;20022;-72
2023/06/06 02:01:59;;;;;;;14.15;6.65;;;15.50;99.90;;;;;;4998960;28;20042;-72
2023/06/06 02:04:24;;;;;;;9.93;6.03;;;15.50;99.90;;;;;;5006341;28;20018;-72
2023/06/06 02:06:51;;;;;;;9.98;5.90;;;15.50;99.90;;;;;;4998946;28;20066;-72
2023/06/06 02:09:17;;;;;;;10.82;6.30;;;15.50;99.90;;;;;;4998551;28;20049;-72
2023/06/06 02:11:43;;;;;;;12.35;6.90;;;15.60;99.90;;;;;;4998474;28;20050;-73
2023/06/06 02:14:09;;;;;;;12.68;7.28;;;15.70;99.90;;;;;;4998570;28;20014;-73
2023/06/06 02:16:36;;;;;;;10.85;6.22;;;15.60;99.90;;;;;;4981120;28;20033;-72
2023/06/06 02:19:02;;;;;;;14.00;6.97;;;15.60;99.90;;;;;;4998514;28;20019;-72
2023/06/06 02:21:28;;;;;;;7.50;5.82;;;15.60;99.90;;;;;;4981108;28;20118;-72
2023/06/06 02:23:54;;;;;;;12.75;6.93;;;15.50;99.90;;;;;;4981315;28;20058;-72
2023/06/06 02:26:21;;;;;;;10.52;6.47;;;15.50;99.90;;;;;;4998157;28;20038;-72
2023/06/06 02:28:47;;;;;;;11.43;6.60;;;15.50;99.90;;;;;;4998314;28;20105;-72
2023/06/06 02:31:14;;;;;;;11.32;7.25;;;15.50;99.90;;;;;;4997497;28;20061;-72
2023/06/06 02:33:40;;;;;;;9.70;6.45;;;15.50;99.90;;;;;;4998166;28;20049;-72
2023/06/06 02:36:06;;;;;;;9.75;6.80;;;15.40;99.90;;;;;;4998216;28;20085;-72
2023/06/06 02:38:32;;;;;;;11.30;6.47;;;15.30;99.90;;;;;;4980963;28;20025;-72
2023/06/06 02:40:58;;;;;;;11.52;6.07;;;15.30;99.90;;;;;;4997717;28;20031;-72
2023/06/06 02:43:23;;;;;;;10.20;6.53;;;15.30;99.90;;;;;;4998130;28;20542;-72
2023/06/06 02:45:50;;;;;;;8.80;6.13;;;15.30;99.90;;;;;;4998043;28;20034;-72
2023/06/06 02:48:16;;;;;;;9.02;6.15;;;15.30;99.90;;;;;;4998123;28;20021;-72
2023/06/06 02:50:41;;;;;;;11.10;6.50;;;15.30;99.90;;;;;;4997979;28;20471;-72
2023/06/06 02:53:07;;;;;;;8.07;5.88;;;15.30;99.90;;;;;;4998056;28;20093;-72
2023/06/06 02:55:33;;;;;;;10.70;6.93;;;15.20;99.90;;;;;;4997666;28;20026;-72
2023/06/06 02:57:58;;;;;;;16.42;6.60;;;15.20;99.90;;;;;;4997611;28;20435;-72
2023/06/06 03:00:24;;;;;;;18.15;6.72;;;15.20;99.90;;;;;;4997633;28;20037;-72
2023/06/06 03:02:50;;;;;;;10.63;5.78;;;15.20;99.90;;;;;;4997685;28;20030;-72
2023/06/06 03:05:17;;;;;;;10.57;6.97;;;15.20;99.90;;;;;;5005303;28;20034;-72
2023/06/06 03:07:42;;;;;;;16.48;7.18;;;15.20;99.90;;;;;;4997422;28;20030;-72
2023/06/06 03:10:09;;;;;;;12.57;6.75;;;15.20;99.90;;;;;;4996298;28;20037;-72
2023/06/06 03:12:34;;;;;;;8.77;6.50;;;15.20;99.90;;;;;;4997865;28;20379;-72
2023/06/06 03:15:00;;;;;;;9.40;6.32;;;15.20;99.90;;;;;;4997510;28;20027;-72
2023/06/06 03:17:26;;;;;;;11.10;6.03;;;15.10;99.90;;;;;;4997815;28;20372;-72
2023/06/06 03:19:52;;;;;;;11.90;6.30;;;15.20;99.90;;;;;;4996647;28;20030;-72
2023/06/06 03:22:18;;;;;;;7.55;5.68;;;15.10;99.90;;;;;;4997286;28;20022;-72
2023/06/06 03:24:45;;;;;;;8.75;5.72;;;15.10;99.90;;;;;;4997560;28;20026;-72
2023/06/06 03:27:12;;;;;;;15.13;6.88;;;15.10;99.90;;;;;;4997298;28;20123;-72
2023/06/06 03:29:39;;;;;;;11.98;6.00;;;15.10;99.90;;;;;;4997541;28;20022;-72
2023/06/06 03:32:06;;;;;;;9.65;6.10;;;15.10;99.90;;;;;;4997678;28;20442;-72
2023/06/06 03:34:32;;;;;;;11.93;6.40;;;15.10;99.90;;;;;;4997308;28;20529;-72
2023/06/06 03:36:58;;;;;;;12.65;6.30;;;15.10;99.90;;;;;;4997799;28;20022;-72
2023/06/06 03:39:25;;;;;;;9.93;6.05;;;15.10;99.90;;;;;;4997629;28;20029;-72
2023/06/06 03:41:50;;;;;;;10.05;6.82;;;15.10;99.90;;;;;;4979581;28;20023;-72
2023/06/06 03:44:16;;;;;;;8.88;6.03;;;15.10;99.90;;;;;;4979906;28;20029;-72
2023/06/06 03:46:42;;;;;;;9.77;6.43;;;15.10;99.90;;;;;;4997413;28;20022;-72
2023/06/06 03:49:08;;;;;;;9.75;6.10;;;15.10;99.90;;;;;;4972183;28;20022;-72
2023/06/06 03:51:33;;;;;;;10.38;5.97;;;15.00;99.90;;;;;;4997193;28;20433;-72
2023/06/06 03:53:59;;;;;;;9.40;5.35;;;15.00;99.90;;;;;;4997235;28;20054;-72
2023/06/06 03:56:27;;;;;;;12.82;6.75;;;15.10;99.90;;;;;;4997151;28;20050;-72
2023/06/06 03:58:53;;;;;;;8.75;6.05;;;15.00;99.90;;;;;;4997001;28;20023;-72
2023/06/06 04:01:20;;;;;;;11.35;5.95;;;15.00;99.90;;;;;;4997356;28;20498;-73
2023/06/06 04:03:46;;;;;;;10.38;6.05;;;14.90;99.90;;;;;;4997277;28;20064;-72
2023/06/06 04:06:13;;;;;;;9.52;6.15;;;14.90;99.90;;;;;;4997402;28;20509;-72
2023/06/06 04:08:40;;;;;;;9.82;5.93;;;14.90;99.90;;;;;;4997305;28;20561;-72
2023/06/06 04:11:06;;;;;;;10.55;6.07;;;14.90;99.90;;;;;;4997177;28;20058;-72
2023/06/06 04:13:31;;;;;;;10.57;6.00;;;14.90;99.90;;;;;;4996919;28;20027;-72
2023/06/06 04:15:57;;;;;;;8.80;5.97;;;14.90;99.90;;;;;;4997274;28;20027;-72
2023/06/06 04:18:22;;;;;;;7.13;5.45;;;14.90;99.90;;;;;;4996963;28;20022;-72
2023/06/06 04:20:48;;;;;;;16.42;6.15;;;14.80;99.90;;;;;;4997053;28;20113;-72
2023/06/06 04:23:14;;;;;;;9.52;6.05;;;14.80;99.90;;;;;;5000843;28;20054;-72
2023/06/06 04:25:40;;;;;;;8.82;5.47;;;14.90;99.90;;;;;;4983117;28;20033;-72
2023/06/06 04:28:06;;;;;;;9.38;5.60;;;14.90;99.90;;;;;;4982884;28;20038;-72
2023/06/06 04:30:32;;;;;;;11.13;6.32;;;14.90;99.90;;;;;;5000796;28;20023;-72
2023/06/06 04:32:58;;;;;;;9.43;6.22;;;14.90;99.90;;;;;;5000711;28;20069;-72
2023/06/06 04:35:24;;;;;;;12.68;5.80;;;15.00;99.90;;;;;;5000750;28;20014;-72
2023/06/06 04:37:53;;;;;;;17.38;6.90;;;14.90;99.90;;;;;;5000520;28;20098;-72
2023/06/06 04:40:21;;;;;;;10.82;6.35;;;14.90;99.90;;;;;;5000500;28;20026;-72
2023/06/06 04:42:49;;;;;;;11.25;6.63;;;15.00;99.90;;;;;;5000283;28;20049;-72
2023/06/06 04:45:15;;;;;;;16.13;6.57;;;15.00;99.90;;;;;;5000503;28;20027;-72
2023/06/06 04:47:44;;;;;;;12.73;6.50;;;15.00;99.90;;;;;;5000262;28;20073;-72
2023/06/06 04:50:10;;;;;;;15.45;6.53;;;15.00;99.90;;;;;;5000374;28;20053;-72
2023/06/06 04:52:36;;;;;;;9.85;6.85;;;15.10;99.90;;;;;;4982489;28;20545;-72
2023/06/06 04:55:04;;;;;;;13.98;6.38;;;15.10;99.90;;;;;;4999933;28;20045;-72
2023/06/06 04:57:29;;;;;;;13.18;6.85;;;15.10;99.90;;;;;;4999918;28;20050;-72
2023/06/06 04:59:56;;;;;;;10.30;6.75;;;15.20;99.90;;;;;;5000183;28;20437;-72
2023/06/06 05:02:23;;;;;;;11.73;6.47;;;15.20;99.90;;;;;;4999888;28;20077;-72
2023/06/06 05:04:53;;;;;;;8.52;6.22;;;15.20;99.90;;;;;;4982444;28;20033;-73
2023/06/06 05:07:19;;;;;;;19.63;6.38;;;15.30;99.90;;;;;;4999555;28;20080;-72
2023/06/06 05:09:44;;;;;;;8.27;6.70;;;15.30;99.90;;;;;;5000028;28;20105;-72
2023/06/06 05:12:10;;;;;;;15.32;6.45;;;15.40;99.90;;;;;;4999547;28;20109;-73
2023/06/06 05:14:36;;;;;;;14.13;7.50;;;15.40;99.90;;;;;;4982390;28;20025;-72
2023/06/06 05:17:01;;;;;;;11.30;7.13;;;15.50;99.90;;;;;;4999861;28;20474;-73
2023/06/06 05:19:27;;;;;;;10.05;6.93;;;15.60;99.90;;;;;;4999843;28;20576;-74
2023/06/06 05:21:53;;;;;;;11.05;6.82;;;15.60;99.90;;;;;;4999587;28;20026;-72
2023/06/06 05:24:18;;;;;;;10.50;6.93;;;15.60;99.90;;;;;;4999870;28;20019;-73
2023/06/06 05:26:44;;;;;;;10.10;6.72;;;15.70;99.90;;;;;;4981653;28;20030;-73
2023/06/06 05:29:10;;;;;;;9.60;6.10;;;15.70;99.90;;;;;;4998153;28;20033;-73
2023/06/06 05:31:36;;;;;;;10.52;6.07;;;15.70;99.90;;;;;;4998894;28;20050;-72
2023/06/06 05:34:02;;;;;;;8.13;6.72;;;15.90;99.90;;;;;;4978635;28;20116;-72
2023/06/06 05:36:28;;;;;;;13.55;6.72;;;15.90;99.90;;;;;;4996626;28;20022;-72
2023/06/06 05:38:53;;;;;;;17.33;7.15;;;16.00;99.90;;;;;;4999704;28;20025;-72
2023/06/06 05:41:20;;;;;;;11.27;6.30;;;16.10;99.90;;;;;;4998802;28;20463;-72
2023/06/06 05:43:47;;;;;;;9.68;6.57;;;16.10;99.90;;;;;;4999493;28;20031;-72
2023/06/06 05:46:13;;;;;;;7.85;6.63;;;16.20;99.90;;;;;;4999161;28;20085;-72
2023/06/06 05:48:39;;;;;;;10.15;6.57;;;16.40;99.90;;;;;;4999394;28;20022;-72
2023/06/06 05:51:05;;;;;;;10.73;6.68;;;16.40;99.90;;;;;;4967222;28;20038;-73
2023/06/06 05:53:31;;;;;;;11.82;6.43;;;16.40;99.90;;;;;;4999379;28;20023;-72
2023/06/06 05:55:57;;;;;;;11.30;6.28;;;16.40;99.90;;;;;;4998498;28;20031;-73
2023/06/06 05:58:23;;;;;;;14.15;6.15;;;16.30;99.90;;;;;;4998927;28;20103;-72
2023/06/06 06:00:49;;;;;;;16.50;6.30;;;16.40;99.90;;;;;;4999003;28;20057;-72
2023/06/06 06:03:15;;;;;;;12.70;6.28;;;16.50;99.90;;;;;;4998979;28;20026;-72
2023/06/06 06:05:41;;;;;;;9.43;6.25;;;16.60;99.90;;;;;;5007618;28;20038;-72
2023/06/06 06:08:07;;;;;;;12.23;5.88;;;16.50;99.90;;;;;;4998745;28;20054;-72
2023/06/06 06:10:37;;;;;;;9.10;5.90;;;16.50;99.90;;;;;;4998422;28;20030;-72
2023/06/06 06:13:04;;;;;;;10.35;5.93;;;16.40;99.90;;;;;;4998689;28;20030;-72
2023/06/06 06:15:30;;;;;;;12.68;7.15;;;16.40;99.90;;;;;;4998763;28;20023;-72
2023/06/06 06:17:56;;;;;;;10.73;5.88;;;16.50;99.90;;;;;;4998801;28;20022;-72
2023/06/06 06:20:22;;;;;;;14.25;6.65;;;16.60;99.90;;;;;;4998674;28;20031;-72
2023/06/06 06:22:48;;;;;;;12.27;7.38;;;16.80;99.90;;;;;;4977698;28;20026;-72
2023/06/06 06:25:14;;;;;;;11.75;7.82;;;17.00;99.90;;;;;;4997172;28;20034;-72
2023/06/06 06:27:41;;;;;;;15.25;6.53;;;17.30;99.90;;;;;;4998532;28;20032;-72
2023/06/06 06:30:09;;;;;;;12.45;6.07;;;17.40;99.90;;;;;;4998176;28;20023;-73
2023/06/06 06:32:36;;;;;;;10.50;5.75;;;17.40;99.90;;;;;;4998170;28;20386;-72
2023/06/06 06:35:03;;;;;;;12.50;5.82;;;17.40;99.90;;;;;;4998280;28;20077;-72
2023/06/06 06:37:30;;;;;;;7.20;6.40;;;17.50;99.90;;;;;;4998227;28;20450;-73
2023/06/06 06:39:59;;;;;;;14.52;7.07;;;17.70;99.90;;;;;;4997959;28;20037;-72
2023/06/06 06:42:26;;;;;;;10.35;5.20;;;17.80;99.90;;;;;;4998148;28;20083;-73
2023/06/06 06:44:52;;;;;;;12.25;5.70;;;17.80;99.90;;;;;;4997396;28;20581;-73
2023/06/06 06:47:18;;;;;;;13.20;5.63;;;18.00;99.90;;;;;;4998091;28;20087;-73
2023/06/06 06:49:44;;;;;;;7.72;5.57;;;18.10;99.90;;;;;;4997980;28;20045;-72
2023/06/06 06:52:15;;;;;;;7.72;5.50;;;18.10;99.90;;;;;;4997952;28;20022;-73
2023/06/06 06:54:53;;;;;;;9.23;6.03;;;18.10;99.90;;;;;;4989802;28;20037;-73
2023/06/06 06:57:20;;;;;;;10.18;6.70;;;18.30;99.90;;;;;;4997819;28;21713;-73
2023/06/06 06:59:46;;;;;;;11.43;5.15;;;18.50;99.90;;;;;;4997916;28;20030;-73
2023/06/06 07:02:12;;;;;;;8.23;5.35;;;18.70;99.90;;;;;;4980261;28;20042;-73
2023/06/06 07:04:39;;;;;;;9.85;5.82;;;18.80;99.90;;;;;;4997410;28;20030;-73
2023/06/06 07:07:06;;;;;;;10.25;5.15;;;18.90;99.90;;;;;;4997875;28;20125;-73
2023/06/06 07:09:31;;;;;;;9.88;4.97;;;19.10;99.90;;;;;;4997874;28;20066;-72
2023/06/06 07:11:57;;;;;;;11.18;6.05;;;19.20;99.90;;;;;;4980003;28;20069;-73
2023/06/06 07:14:24;;;;;;;8.95;4.95;;;19.30;99.90;;;;;;4997577;28;20026;-73
2023/06/06 07:16:50;;;;;;;10.73;5.25;;;19.50;99.90;;;;;;4997725;28;20026;-72
2023/06/06 07:19:15;;;;;;;12.75;5.88;;;19.60;99.90;;;;;;4997857;28;20026;-72
2023/06/06 07:21:41;;;;;;;10.60;4.88;;;19.80;99.90;;;;;;4997549;28;20032;-72
2023/06/06 07:24:07;;;;;;;9.77;5.05;;;20.00;99.90;;;;;;4997428;28;20371;-72
2023/06/06 07:26:32;;;;;;;6.03;5.25;;;20.20;99.90;;;;;;4997061;28;20030;-72
2023/06/06 07:28:58;;;;;;;6.97;4.75;;;20.30;99.90;;;;;;4997581;28;20058;-71
2023/06/06 07:31:25;;;;;;;10.30;6.55;;;20.40;99.90;;;;;;4997215;28;20034;-72
2023/06/06 07:33:50;;;;;;;8.65;4.50;;;20.50;99.90;;;;;;4997478;28;20046;-72
2023/06/06 07:36:16;;;;;;;7.32;5.57;;;20.70;99.90;;;;;;4997287;28;20034;-72
2023/06/06 07:38:41;;;;;;;5.40;4.25;;;20.80;99.90;;;;;;4997619;28;20026;-74
2023/06/06 07:41:07;;;;;;;6.07;4.20;;;20.90;99.90;;;;;;4997161;28;20065;-71
2023/06/06 07:43:33;;;;;;;8.25;3.85;;;21.00;99.90;;;;;;4997380;28;20057;-71
2023/06/06 07:45:58;;;;;;;6.55;4.35;;;21.00;99.90;;;;;;4979871;28;20108;-72
2023/06/06 07:48:24;;;;;;;8.65;4.47;;;21.10;99.90;;;;;;4997592;28;20105;-72
2023/06/06 07:50:50;;;;;;;5.13;4.32;;;21.20;99.90;;;;;;4996894;28;20026;-72
2023/06/06 07:53:16;;;;;;;6.65;4.35;;;21.30;99.90;;;;;;4997483;28;20029;-73
2023/06/06 07:55:43;;;;;;;8.35;4.20;;;21.30;99.90;;;;;;4998165;28;20014;-72
2023/06/06 07:58:11;;;;;;;9.35;3.85;;;21.40;99.90;;;;;;5000985;28;20050;-71
2023/06/06 08:00:39;;;;;;;7.03;4.25;;;21.40;99.90;;;;;;4996997;28;20587;-72
2023/06/06 08:03:06;;;;;;;6.85;3.95;;;21.60;99.90;;;;;;5001112;28;20050;-72
2023/06/06 08:05:33;;;;;;;4.57;3.63;;;21.70;99.90;;;;;;4983392;28;20062;-72
2023/06/06 08:08:00;;;;;;;4.22;3.40;;;21.80;99.90;;;;;;5000914;28;20027;-72
2023/06/06 08:10:26;;;;;;;7.57;3.92;;;21.80;99.90;;;;;;5000839;28;20037;-72
2023/06/06 08:12:52;;;;;;;6.78;4.32;;;22.00;99.90;;;;;;5000901;28;20025;-72
2023/06/06 08:15:17;;;;;;;8.35;4.97;;;22.00;99.90;;;;;;5000843;28;20383;-72
2023/06/06 08:17:44;;;;;;;7.18;4.40;;;22.00;99.90;;;;;;5000611;28;20497;-72
2023/06/06 08:20:11;;;;;;;5.50;3.72;;;22.20;99.90;;;;;;5000753;28;20030;-71
2023/06/06 08:22:40;;;;;;;9.18;3.85;;;22.30;99.90;;;;;;5000670;28;20148;-71
2023/06/06 08:25:07;;;;;;;6.28;3.78;;;22.40;99.90;;;;;;5000419;28;20041;-72
2023/06/06 08:27:34;;;;;;;7.30;3.63;;;22.40;99.90;;;;;;4987978;28;20038;-72
2023/06/06 08:30:00;;;;;;;6.72;3.97;;;22.50;99.90;;;;;;5000445;28;20096;-71
2023/06/06 08:32:26;;;;;;;5.97;4.50;;;22.60;99.90;;;;;;5000350;28;20046;-72
2023/06/06 08:34:53;;;;;;;5.03;3.92;;;22.70;99.90;;;;;;5000593;28;20210;-71
2023/06/06 08:37:19;;;;;;;9.82;4.50;;;22.70;99.90;;;;;;5000935;28;20459;-71
2023/06/06 08:39:45;;;;;;;4.85;3.90;;;22.70;99.90;;;;;;4999985;28;20105;-72
2023/06/06 08:42:11;;;;;;;7.22;4.20;;;22.70;99.90;;;;;;4991552;28;20031;-71
2023/06/06 08:44:38;;;;;;;5.43;4.40;;;22.90;99.90;;;;;;4997992;28;20026;-72
2023/06/06 08:47:05;;;;;;;3.97;3.47;;;23.00;99.90;;;;;;4997056;28;20043;-73
2023/06/06 08:49:32;;;;;;;9.05;4.97;;;23.10;99.90;;;;;;4992695;28;20140;-73
2023/06/06 08:51:58;;;;;;;4.10;3.70;;;23.20;99.90;;;;;;5000138;28;20022;-73
2023/06/06 08:54:25;;;;;;;4.50;3.90;;;23.40;99.90;;;;;;4999897;28;20026;-73
2023/06/06 08:56:54;;;;;;;6.32;3.88;;;23.50;99.90;;;;;;4999678;28;20407;-72
2023/06/06 08:59:21;;;;;;;5.50;3.70;;;23.60;99.90;;;;;;4999963;28;20034;-72
2023/06/06 09:01:51;;;;;;;7.57;3.55;;;23.50;99.90;;;;;;5000309;28;20030;-72
2023/06/06 09:04:18;;;;;;;8.65;4.25;;;23.70;99.90;;;;;;4999520;28;20081;-72
2023/06/06 09:06:46;;;;;;;5.95;3.78;;;23.70;99.90;;;;;;4998783;28;20030;-73
2023/06/06 09:09:13;;;;;;;7.68;4.20;;;23.80;99.90;;;;;;4999909;28;20398;-72
2023/06/06 09:11:39;;;;;;;5.43;4.03;;;23.90;99.90;;;;;;4999438;28;20026;-72
2023/06/06 09:14:05;;;;;;;6.88;3.75;;;24.00;99.90;;;;;;4999766;28;20073;-73
2023/06/06 09:16:32;;;;;;;7.55;4.30;;;23.90;99.90;;;;;;4999453;28;20034;-73
2023/06/06 09:18:58;;;;;;;6.80;4.40;;;24.10;99.90;;;;;;4994766;28;20949;-74
2023/06/06 09:21:29;;;;;;;6.70;3.60;;;24.30;99.90;;;;;;4981554;28;20034;-73
2023/06/06 09:23:56;;;;;;;6.88;3.30;;;24.40;99.90;;;;;;4990508;28;20503;-73
2023/06/06 09:26:22;;;;;;;4.95;4.18;;;24.40;99.90;;;;;;4980469;28;20033;-74
2023/06/06 09:28:48;;;;;;;7.53;3.85;;;24.40;99.90;;;;;;4999072;28;20398;-81
2023/06/06 09:31:30;;;;;;;6.03;3.38;;;24.40;99.90;;;;;;4999145;28;20038;-80
2023/06/06 09:33:58;;;;;;;4.47;3.50;;;24.40;99.90;;;;;;4992531;28;20015;-80
2023/06/06 09:36:28;;;;;;;5.93;2.90;;;24.60;99.90;;;;;;5002769;28;20085;-71
2023/06/06 09:39:07;;;;;;;6.35;3.58;;;24.80;99.90;;;;;;4992072;28;20105;-71
2023/06/06 09:41:49;;;;;;;7.80;3.92;;;24.90;99.90;;;;;;4999147;28;20042;-73
2023/06/06 09:44:20;;;;;;;5.45;4.15;;;24.80;99.90;;;;;;4999060;28;20022;-72
2023/06/06 09:46:46;;;;;;;6.97;3.72;;;24.80;99.90;;;;;;4990627;28;20026;-71
2023/06/06 09:49:13;;;;;;;5.05;3.70;;;24.80;99.90;;;;;;4965640;28;20094;-72
2023/06/06 09:51:45;;;;;;;6.45;3.53;;;24.80;99.90;;;;;;4998932;28;20076;-72
2023/06/06 09:54:11;;;;;;;5.90;3.97;;;24.90;99.90;;;;;;4999039;28;20045;-72
2023/06/06 09:56:40;;;;;;;5.03;4.05;;;25.00;99.90;;;;;;4998613;28;20069;-72
2023/06/06 09:59:08;;;;;;;4.97;3.05;;;25.00;99.90;;;;;;4998856;28;20034;-72
2023/06/06 10:01:37;;;;;;;4.82;3.80;;;24.90;99.90;;;;;;4969466;28;20027;-72
2023/06/06 10:04:07;;;;;;;6.13;4.43;;;25.00;99.90;;;;;;4996830;28;20441;-72
2023/06/06 10:06:37;;;;;;;5.78;3.85;;;25.00;99.90;;;;;;4998996;28;20476;-72
2023/06/06 10:09:06;;;;;;;9.15;4.20;;;25.00;99.90;;;;;;4998642;28;20062;-72
2023/06/06 10:11:36;;;;;;;4.10;3.55;;;25.20;99.90;;;;;;4998215;28;20443;-72
2023/06/06 10:14:05;;;;;;;5.75;4.10;;;25.00;99.90;;;;;;4995866;28;20018;-72
2023/06/06 10:16:34;;;;;;;5.55;3.88;;;25.30;99.90;;;;;;4998663;28;20038;-73
2023/06/06 10:19:00;;;;;;;5.97;3.80;;;25.40;99.90;;;;;;4998753;28;20038;-72
2023/06/06 10:21:28;;;;;;;5.15;3.58;;;25.30;99.90;;;;;;4998172;28;20086;-72
2023/06/06 10:23:54;;;;;;;5.63;3.97;;;25.40;99.90;;;;;;4998325;28;20031;-73
2023/06/06 10:26:37;;;;;;;5.55;3.70;;;25.40;99.90;;;;;;4998170;28;20037;-72
2023/06/06 10:29:27;;;;;;;4.03;3.40;;;25.50;99.90;;;;;;4998393;28;20544;-72
2023/06/06 10:32:05;;;;;;;4.55;3.40;;;25.40;99.90;;;;;;4992905;28;20517;-72
2023/06/06 10:34:37;;;;;;;4.65;3.20;;;25.60;99.90;;;;;;4998332;28;20566;-71
2023/06/06 10:37:19;;;;;;;7.15;3.70;;;25.60;99.90;;;;;;4997990;28;20038;-72
2023/06/06 10:39:48;;;;;;;4.68;3.47;;;26.00;99.90;;;;;;4997032;28;20027;-72
2023/06/06 10:42:15;;;;;;;4.53;3.17;;;26.00;99.90;;;;;;4990817;28;20022;-72
2023/06/06 10:44:43;;;;;;;4.88;3.70;;;26.00;99.90;;;;;;4977217;28;20034;-72
2023/06/06 10:47:21;;;;;;;6.30;3.42;;;26.10;99.90;;;;;;4991705;28;20054;-73
2023/06/06 10:50:11;;;;;;;5.70;3.55;;;26.00;99.90;;;;;;4998083;28;20441;-72
2023/06/06 10:52:54;;;;;;;5.60;3.73;;;26.00;99.90;;;;;;4975841;28;20038;-71
2023/06/06 10:55:22;;;;;;;6.28;3.42;;;25.90;99.90;;;;;;4991239;28;20030;-71
2023/06/06 10:57:55;;;;;;;7.75;3.65;;;25.80;99.90;;;;;;4980845;28;20050;-72
2023/06/06 11:00:23;;;;;;;6.60;3.22;;;25.90;99.90;;;;;;4997143;28;20092;-72
2023/06/06 11:02:49;;;;;;;7.18;3.17;;;26.10;99.90;;;;;;4980462;28;20368;-71
2023/06/06 11:05:15;;;;;;;7.57;3.40;;;26.40;99.90;;;;;;5006090;28;20042;-72
2023/06/06 11:07:41;;;;;;;6.32;3.00;;;26.40;99.90;;;;;;4997781;28;20026;-72
2023/06/06 11:10:07;;;;;;;5.32;3.00;;;26.30;99.90;;;;;;4997332;28;20077;-72
2023/06/06 11:12:33;;;;;;;4.63;2.80;;;26.20;99.90;;;;;;4997653;28;20046;-72
2023/06/06 11:15:04;;;;;;;5.53;3.42;;;26.30;99.90;;;;;;4998008;28;20149;-72
2023/06/06 11:17:42;;;;;;;4.28;2.97;;;26.30;99.90;;;;;;4997585;28;20025;-72
2023/06/06 11:20:17;;;;;;;4.57;3.20;;;26.40;99.90;;;;;;4997435;28;20406;-72
2023/06/06 11:23:02;;;;;;;6.28;3.05;;;26.50;99.90;;;;;;4997680;28;20023;-72
2023/06/06 11:25:34;;;;;;;6.05;3.05;;;26.20;99.90;;;;;;4995740;28;20022;-72
2023/06/06 11:28:00;;;;;;;5.30;2.90;;;26.30;99.90;;;;;;4997478;28;20487;-72
2023/06/06 11:30:36;;;;;;;5.68;3.13;;;26.40;99.90;;;;;;4997158;28;20034;-72
2023/06/06 11:33:11;;;;;;;4.65;3.13;;;26.40;99.90;;;;;;4997453;28;20105;-72
2023/06/06 11:35:39;;;;;;;8.18;3.25;;;26.50;99.90;;;;;;4997302;28;20026;-72
2023/06/06 11:38:06;;;;;;;9.25;3.60;;;26.70;99.90;;;;;;4978592;28;20030;-72
2023/06/06 11:40:31;;;;;;;5.05;3.13;;;26.70;99.90;;;;;;4997237;28;20061;-73
2023/06/06 11:42:58;;;;;;;6.15;3.45;;;26.90;99.90;;;;;;4979798;28;20590;-69
2023/06/06 11:45:24;;;;;;;5.00;3.35;;;27.20;99.90;;;;;;4997325;28;20041;-70
2023/06/06 11:47:51;;;;;;;3.58;2.60;;;27.30;99.90;;;;;;4997322;28;20027;-72
2023/06/06 11:50:27;;;;;;;7.35;3.15;;;27.50;99.90;;;;;;4997251;28;20450;-71
2023/06/06 11:52:53;;;;;;;5.18;2.83;;;27.50;99.90;;;;;;4997029;28;20022;-70
2023/06/06 11:55:19;;;;;;;3.85;3.00;;;27.60;99.90;;;;;;4996879;28;20037;-70
2023/06/06 11:57:45;;;;;;;5.32;3.22;;;27.70;99.90;;;;;;4996910;28;20042;-70
2023/06/06 12:00:18;;;;;;;5.72;3.17;;;27.50;99.90;;;;;;4997277;28;20128;-70
2023/06/06 12:02:52;;;;;;;4.28;3.15;;;27.70;99.90;;;;;;4997124;28;20073;-71
2023/06/06 12:05:19;;;;;;;5.10;3.22;;;27.30;99.90;;;;;;4999120;28;20039;-71
2023/06/06 12:07:49;;;;;;;3.90;2.80;;;27.20;99.90;;;;;;4997017;28;20042;-70
2023/06/06 12:10:27;;;;;;;6.15;3.47;;;27.30;99.90;;;;;;4996395;28;20050;-72
2023/06/06 12:12:52;;;;;;;4.78;3.00;;;27.10;99.90;;;;;;4997366;28;20046;-71
2023/06/06 12:15:18;;;;;;;5.88;3.38;;;27.10;99.90;;;;;;4996963;28;20430;-71
2023/06/06 12:17:44;;;;;;;5.47;3.13;;;27.20;99.90;;;;;;4979707;28;20021;-72
2023/06/06 12:20:10;;;;;;;9.95;3.60;;;27.10;99.90;;;;;;4996942;28;20030;-70
2023/06/06 12:22:36;;;;;;;6.72;3.20;;;27.20;99.90;;;;;;4997354;28;20023;-71
2023/06/06 12:25:03;;;;;;;3.95;3.15;;;27.20;99.90;;;;;;4996702;28;20037;-71
2023/06/06 12:27:33;;;;;;;8.13;3.40;;;27.20;99.90;;;;;;4997305;28;20031;-71
2023/06/06 12:30:00;;;;;;;;;;;27.30;99.90;;;;;;4997157;28;20030;-71
2023/06/06 12:32:29;;;;;;;7.30;3.20;;;27.60;99.90;;;;;;4997111;28;20255;-70
2023/06/06 12:34:59;;;;;;;5.65;3.22;;;28.20;99.90;;;;;;4997011;28;20025;-70
2023/06/06 12:37:34;;;;;;;;;;;28.10;99.90;;;;;;4997341;28;20493;-71
2023/06/06 12:40:00;;;;;;;5.70;3.42;;;28.10;99.90;;;;;;4996509;28;19906;-70
2023/06/06 12:42:25;;;;;;;4.93;3.08;;;28.00;99.90;;;;;;4997996;28;20026;-71
2023/06/06 12:44:51;;;;;;;4.43;3.10;;;27.60;99.90;;;;;;5000400;28;20026;-71